This is the latest recevied weather packets stored in our database for station/object EA4BCR. If no packets are shown the sender has not sent any weather packets the latest 10 day(s).
| Time | Temp. | Humidity | Pressure | Rain* | Wind** | Luminosity | Snow |
|---|---|---|---|---|---|---|---|
| 1787905215 | 18.33° C | 51% | 1020.2 hPa | - | - | - | - |
| 1787904615 | 17.78° C | 53% | 1020.2 hPa | - | - | - | - |
| 1787904015 | 17.22° C | 55% | 1020.4 hPa | - | - | - | - |
| 1787903415 | 17.22° C | 57% | 1020.3 hPa | - | - | - | - |
| 1787902815 | 16.67° C | 64% | 1020.4 hPa | - | - | - | - |
| 1787902215 | 16.11° C | 66% | 1020.5 hPa | - | - | - | - |
| 1787901615 | 15.56° C | 69% | 1020.6 hPa | - | - | - | - |
| 1787901015 | 15° C | 72% | 1020.9 hPa | - | - | - | - |
| 1787900415 | 13.89° C | 77% | 1021.2 hPa | - | - | - | - |
| 1787899815 | 13.89° C | 80% | 1021.2 hPa | - | - | - | - |
| 1787899215 | 13.33° C | 80% | 1021.1 hPa | - | - | - | - |
| 1787898615 | 12.78° C | 81% | 1021.2 hPa | - | - | - | - |
| 1787898015 | 13.33° C | 78% | 1021 hPa | - | - | - | - |
| 1787897415 | 12.78° C | 79% | 1021 hPa | - | - | - | - |
| 1787896815 | 12.78° C | 82% | 1021.1 hPa | - | - | - | - |
| 1787896215 | 12.22° C | 81% | 1021.1 hPa | - | - | - | - |
| 1787895615 | 12.78° C | 77% | 1020.8 hPa | - | - | - | - |
| 1787895015 | 12.78° C | 76% | 1020.5 hPa | - | - | - | - |
| 1787894415 | 12.78° C | 74% | 1020.5 hPa | - | - | - | - |
| 1787893815 | 13.89° C | 73% | 1019.9 hPa | - | - | - | - |
| 1787893215 | 13.89° C | 74% | 1020.3 hPa | - | - | - | - |
| 1787892615 | 13.89° C | 73% | 1019.9 hPa | - | - | - | - |
| 1787892015 | 14.44° C | 72% | 1019.8 hPa | - | - | - | - |
| 1787891415 | 13.89° C | 74% | 1020.1 hPa | - | - | - | - |
| 1787890815 | 14.44° C | 71% | 1019.9 hPa | - | - | - | - |
* Rain since midnight (hover to see other rain measurements)
** Current wind speed in m/s (hover to see current wind gust speed)